Main page
METAR-TAF:

METAR-TAF

Airports :

Laupheim, Germany

Laupheim Air Base

latitude: 48-13N, longitude: 009-55E, elevation: 538 m

Current weather observation

The report was made 17 minutes ago, at 22:20 UTC
Wind 6 kt from the West
Temperature 17°C
Humidity 63%
Pressure 1021 hPa
Visibility 10 km or more
Few clouds at a height of 16000 ft
Broken clouds at a height of 21000 ft

METAR: ETHL 232220Z 28006KT 9999 FEW160 BKN210 17/10 Q1021 BLU+FCST CANCEL

Time: 00:37 (22:37 UTC)

Forecast

The report was made 3 hours and 19 minutes ago, at 19:18 UTC
Forecast valid from 23 at 20 UTC to 24 at 05 UTC
Wind 7 kt from the West
Visibility 10 km or more
Few clouds at a height of 6000 ft
Broken clouds at a height of 18000 ft
Temporary
from 23 at 20 UTC to 23 at 21 UTC
Wind 12 kt from the West with gusts up to 22 kt
Visibility 10 km or more
Scattered clouds at a height of 6000 ft
Broken clouds at a height of 16000 ft

TAF: ETHL 231918Z 2320/2405 28007KT 9999 NSW FEW060 BKN180 TEMPO 2320/2321 28012G22KT 9999 NSW SCT060 BKN160

Weather observations and forecasts of more than 4000 airports (METAR and TAF reports).

The available stations are represented by yellow and red dots on the map.

Hover mouse over dot to see the name of the station.

Then click to see weather observations and forecasts.

To change the map : click on the green buttons with a black cross to zoom in, on the green button with a dash to zoom out, or on the green arrows for adjacent maps.


METAR-TAF: